createdAt,value
2023-03-11T00:00:24.623Z,0.38
2023-03-11T00:02:52.609Z,0.36
2023-03-11T00:05:21.228Z,0.41
2023-03-11T00:07:47.928Z,0.33
2023-03-11T00:10:20.021Z,0.33
2023-03-11T00:12:46.662Z,0.28
2023-03-11T00:15:13.312Z,0.30
2023-03-11T00:17:40.067Z,0.31
2023-03-11T00:20:17.336Z,0.32
2023-03-11T00:22:43.990Z,0.32
2023-03-11T00:25:12.028Z,0.33
2023-03-11T00:27:38.730Z,0.36
2023-03-11T00:30:05.786Z,0.33
2023-03-11T00:32:32.438Z,0.23
2023-03-11T00:34:59.063Z,0.28
2023-03-11T00:37:25.704Z,0.28
2023-03-11T00:39:52.353Z,0.19
2023-03-11T00:42:18.989Z,0.33
2023-03-11T00:44:45.667Z,0.34
2023-03-11T00:47:12.299Z,0.23
2023-03-11T00:49:38.983Z,0.20
2023-03-11T00:52:05.983Z,0.28
2023-03-11T00:54:32.730Z,0.25
2023-03-11T00:56:59.409Z,0.27
2023-03-11T00:59:26.080Z,0.27
2023-03-11T01:01:52.694Z,0.25
2023-03-11T01:04:19.355Z,0.33
2023-03-11T01:06:46.076Z,0.39
2023-03-11T01:09:12.931Z,0.71
2023-03-11T01:11:39.544Z,0.65
2023-03-11T01:14:06.170Z,0.42
2023-03-11T01:16:32.824Z,0.43
2023-03-11T01:18:59.469Z,0.38
2023-03-11T01:21:26.135Z,0.34
2023-03-11T01:23:52.798Z,0.27
2023-03-11T01:26:19.441Z,0.24
2023-03-11T01:28:46.083Z,0.27
2023-03-11T01:31:12.769Z,0.37
2023-03-11T01:33:39.702Z,0.31
2023-03-11T01:36:07.817Z,0.29
2023-03-11T01:38:34.471Z,0.26
2023-03-11T01:41:01.109Z,0.20
2023-03-11T01:43:42.772Z,0.29
2023-03-11T01:46:11.097Z,0.22
2023-03-11T01:48:37.766Z,0.18
2023-03-11T01:51:05.009Z,0.17
2023-03-11T01:53:31.650Z,0.20
2023-03-11T01:55:58.306Z,0.20
2023-03-11T01:58:26.635Z,0.20
2023-03-11T02:00:53.825Z,0.24
2023-03-11T02:03:31.196Z,0.24
2023-03-11T02:05:57.893Z,0.33
2023-03-11T02:08:24.538Z,0.28
2023-03-11T02:10:52.160Z,0.20
2023-03-11T02:13:18.779Z,0.28
2023-03-11T02:15:45.445Z,0.32
2023-03-11T02:18:12.837Z,0.31
2023-03-11T02:20:46.996Z,0.26
2023-03-11T02:23:14.018Z,0.27
2023-03-11T02:25:51.123Z,0.38
2023-03-11T02:28:17.832Z,0.82
2023-03-11T02:30:44.489Z,0.79
2023-03-11T02:33:11.126Z,0.48
2023-03-11T02:35:37.822Z,0.42
2023-03-11T02:38:04.477Z,0.45
2023-03-11T02:40:38.466Z,0.33
2023-03-11T02:43:09.916Z,0.48
2023-03-11T02:45:36.539Z,0.45
2023-03-11T02:48:03.196Z,0.46
2023-03-11T02:50:29.839Z,0.37
2023-03-11T02:52:56.454Z,0.34
2023-03-11T02:55:23.223Z,0.42
2023-03-11T02:57:49.866Z,0.39
2023-03-11T03:00:17.038Z,0.24
2023-03-11T03:02:43.991Z,0.28
2023-03-11T03:05:10.864Z,0.31
2023-03-11T03:07:37.485Z,0.38
2023-03-11T03:10:07.504Z,0.25
2023-03-11T03:12:34.153Z,0.24
2023-03-11T03:15:00.782Z,0.26
2023-03-11T03:17:27.515Z,0.21
2023-03-11T03:19:54.139Z,0.16
2023-03-11T03:22:20.781Z,0.19
2023-03-11T03:24:47.421Z,0.20
2023-03-11T03:27:14.034Z,0.19
2023-03-11T03:29:40.672Z,0.30
2023-03-11T03:32:07.564Z,0.17
2023-03-11T03:34:34.243Z,0.12
2023-03-11T03:37:00.887Z,0.15
2023-03-11T03:39:30.111Z,0.12
2023-03-11T03:41:57.260Z,0.17
2023-03-11T03:44:23.930Z,0.23
2023-03-11T03:46:50.562Z,0.18
2023-03-11T03:49:17.204Z,0.18
2023-03-11T03:51:43.823Z,0.15
2023-03-11T03:54:10.511Z,0.20
2023-03-11T03:56:37.139Z,0.19
2023-03-11T03:59:03.776Z,0.23
2023-03-11T04:01:30.477Z,0.21
2023-03-11T04:03:57.179Z,0.20
2023-03-11T04:06:25.163Z,0.24
2023-03-11T04:08:52.257Z,0.17
2023-03-11T04:11:19.010Z,0.24
2023-03-11T04:13:45.686Z,0.20
2023-03-11T04:16:22.419Z,0.19
2023-03-11T04:18:49.157Z,0.26
2023-03-11T04:21:15.802Z,0.19
2023-03-11T04:23:42.448Z,0.19
2023-03-11T04:26:09.075Z,0.28
2023-03-11T04:28:35.711Z,0.26
2023-03-11T04:31:02.375Z,0.23
2023-03-11T04:33:29.038Z,0.16
2023-03-11T04:35:55.827Z,0.19
2023-03-11T04:38:22.479Z,0.16
2023-03-11T04:40:49.121Z,0.15
2023-03-11T04:43:15.737Z,0.17
2023-03-11T04:45:42.553Z,0.21
2023-03-11T04:48:09.195Z,0.18
2023-03-11T04:50:35.834Z,0.17
2023-03-11T04:53:02.484Z,0.20
2023-03-11T04:55:29.130Z,0.18
2023-03-11T04:57:55.754Z,0.14
2023-03-11T05:00:22.563Z,0.24
2023-03-11T05:02:49.251Z,0.28
2023-03-11T05:05:15.878Z,0.23
2023-03-11T05:07:42.526Z,0.30
2023-03-11T05:10:09.742Z,0.30
2023-03-11T05:12:36.422Z,0.24
2023-03-11T05:15:03.110Z,0.17
2023-03-11T05:17:29.723Z,0.15
2023-03-11T05:19:56.372Z,0.30
2023-03-11T05:22:23.024Z,0.29
2023-03-11T05:24:49.722Z,0.19
2023-03-11T05:27:16.488Z,0.25
2023-03-11T05:29:43.281Z,0.21
2023-03-11T05:32:10.582Z,0.28
2023-03-11T05:34:37.608Z,0.29
2023-03-11T05:37:04.225Z,0.21
2023-03-11T05:39:30.848Z,0.20
2023-03-11T05:41:57.462Z,0.30
2023-03-11T05:44:24.068Z,0.16
2023-03-11T05:46:50.763Z,0.24
2023-03-11T05:49:17.472Z,0.21
2023-03-11T05:51:44.123Z,0.20
2023-03-11T05:54:10.757Z,0.19
2023-03-11T05:56:37.387Z,0.22
2023-03-11T05:59:04.027Z,0.22
2023-03-11T06:01:30.636Z,0.17
2023-03-11T06:03:57.372Z,0.14
2023-03-11T06:06:24.249Z,0.19
2023-03-11T06:08:50.871Z,0.32
2023-03-11T06:11:17.497Z,0.33
2023-03-11T06:13:44.116Z,0.41
2023-03-11T06:16:10.798Z,0.43
2023-03-11T06:18:37.587Z,0.38
2023-03-11T06:21:04.321Z,0.39
2023-03-11T06:23:30.958Z,0.35
2023-03-11T06:25:57.840Z,0.34
2023-03-11T06:28:24.673Z,0.33
2023-03-11T06:30:51.329Z,0.25
2023-03-11T06:33:17.958Z,0.34
2023-03-11T06:35:44.593Z,0.52
2023-03-11T06:38:11.299Z,0.47
2023-03-11T06:40:37.959Z,0.43
2023-03-11T06:43:04.597Z,0.53
2023-03-11T06:45:31.321Z,0.52
2023-03-11T06:47:57.974Z,0.40
2023-03-11T06:50:25.258Z,0.40
2023-03-11T06:52:53.041Z,0.63
2023-03-11T06:55:20.445Z,0.58
2023-03-11T06:57:48.029Z,0.53
2023-03-11T07:00:15.218Z,0.38
2023-03-11T07:02:43.238Z,0.44
2023-03-11T07:05:10.812Z,0.41
2023-03-11T07:07:38.422Z,0.42
2023-03-11T07:10:08.002Z,0.59
2023-03-11T07:12:35.598Z,0.57
2023-03-11T07:15:03.195Z,0.61
2023-03-11T07:17:29.870Z,0.60
2023-03-11T07:19:56.609Z,0.70
2023-03-11T07:22:23.256Z,0.70
2023-03-11T07:24:49.953Z,0.77
2023-03-11T07:27:16.591Z,0.87
2023-03-11T07:29:43.374Z,0.86
2023-03-11T07:32:10.154Z,0.95
2023-03-11T07:34:36.835Z,0.89
2023-03-11T07:37:03.824Z,0.87
2023-03-11T07:39:32.217Z,0.91
2023-03-11T07:41:58.930Z,0.94
2023-03-11T07:44:26.396Z,1.07
2023-03-11T07:46:53.985Z,1.04
2023-03-11T07:49:21.591Z,1.21
2023-03-11T07:51:48.251Z,1.35
2023-03-11T07:54:14.984Z,1.29
2023-03-11T07:56:42.486Z,1.29
2023-03-11T07:59:09.110Z,1.51
2023-03-11T08:01:35.734Z,1.70
2023-03-11T08:04:04.453Z,1.71
2023-03-11T08:06:32.132Z,1.78
2023-03-11T08:09:03.532Z,1.76
2023-03-11T08:11:30.819Z,1.72
2023-03-11T08:13:57.491Z,1.75
2023-03-11T08:16:24.353Z,1.73
2023-03-11T08:18:51.731Z,1.89
2023-03-11T08:21:20.124Z,1.76
2023-03-11T08:23:46.769Z,1.64
2023-03-11T08:26:15.534Z,1.62
2023-03-11T08:28:42.348Z,2.04
2023-03-11T08:31:19.796Z,1.71
2023-03-11T08:33:47.869Z,1.64
2023-03-11T08:36:14.905Z,1.71
2023-03-11T08:38:41.603Z,2.03
2023-03-11T08:41:08.258Z,1.51
2023-03-11T08:43:34.898Z,1.28
2023-03-11T08:46:02.134Z,0.79
2023-03-11T08:48:28.915Z,0.78
2023-03-11T08:50:55.637Z,0.69
2023-03-11T08:53:22.665Z,0.49
2023-03-11T08:55:50.421Z,0.45
2023-03-11T08:58:17.084Z,0.32
2023-03-11T09:00:43.730Z,0.53
2023-03-11T09:03:10.575Z,0.42
2023-03-11T09:05:37.387Z,0.40
2023-03-11T09:08:05.647Z,0.53
2023-03-11T09:10:32.512Z,0.76
2023-03-11T09:12:59.174Z,0.39
2023-03-11T09:15:25.869Z,0.27
2023-03-11T09:17:52.570Z,0.17
2023-03-11T09:20:19.504Z,0.28
2023-03-11T09:22:46.175Z,0.40
2023-03-11T09:25:12.823Z,0.32
2023-03-11T09:27:39.473Z,0.49
2023-03-11T09:30:06.572Z,0.36
2023-03-11T09:32:33.233Z,0.51
2023-03-11T09:34:59.904Z,0.44
2023-03-11T09:37:26.559Z,0.56
2023-03-11T09:39:53.271Z,0.51
2023-03-11T09:42:26.444Z,0.62
2023-03-11T09:45:11.701Z,0.89
2023-03-11T09:47:59.814Z,0.87
2023-03-11T09:50:31.184Z,0.86
2023-03-11T09:53:17.901Z,0.83
2023-03-11T09:55:54.097Z,0.73
2023-03-11T09:58:35.974Z,0.61
2023-03-11T10:01:04.453Z,0.73
2023-03-11T10:03:33.180Z,0.63
2023-03-11T10:06:14.548Z,0.46
2023-03-11T10:08:46.707Z,0.42
2023-03-11T10:11:22.967Z,0.45
2023-03-11T10:14:07.722Z,0.50
2023-03-11T10:16:45.449Z,0.52
2023-03-11T10:19:19.145Z,0.50
2023-03-11T10:22:21.836Z,0.54
2023-03-11T10:24:58.447Z,0.54
2023-03-11T10:27:36.079Z,0.64
2023-03-11T10:30:12.696Z,0.51
2023-03-11T10:32:59.673Z,0.49
2023-03-11T10:35:42.047Z,0.38
2023-03-11T10:38:19.640Z,0.39
2023-03-11T10:40:48.307Z,0.38
2023-03-11T10:43:17.789Z,0.35
2023-03-11T10:45:44.808Z,0.39
2023-03-11T10:48:16.175Z,0.40
2023-03-11T10:51:05.836Z,0.50
2023-03-11T10:53:34.437Z,0.41
2023-03-11T10:56:02.034Z,0.54
2023-03-11T10:58:32.042Z,0.42
2023-03-11T11:01:05.339Z,0.77
2023-03-11T11:03:32.845Z,0.85
2023-03-11T11:06:07.045Z,1.19
2023-03-11T11:08:34.054Z,0.99
2023-03-11T11:11:02.635Z,0.88
2023-03-11T11:13:31.258Z,0.97
2023-03-11T11:16:17.605Z,0.88
2023-03-11T11:18:49.435Z,0.81
2023-03-11T11:21:17.569Z,0.81
2023-03-11T11:23:47.273Z,0.86
2023-03-11T11:26:23.851Z,1.02
2023-03-11T11:29:19.754Z,1.06
2023-03-11T11:31:46.613Z,0.99
2023-03-11T11:34:33.649Z,0.75
2023-03-11T11:37:04.676Z,0.70
2023-03-11T11:39:39.050Z,0.65
2023-03-11T11:42:05.706Z,0.78
2023-03-11T11:44:34.290Z,0.83
2023-03-11T11:47:07.635Z,0.88
2023-03-11T11:49:34.662Z,0.89
2023-03-11T11:52:18.633Z,0.76
2023-03-11T11:54:51.218Z,2.67
2023-03-11T11:57:19.362Z,4.32
2023-03-11T11:59:46.040Z,8.43
2023-03-11T12:02:27.963Z,2.63
2023-03-11T12:04:56.503Z,1.21
2023-03-11T12:07:48.343Z,1.95
2023-03-11T12:10:23.177Z,3.97
2023-03-11T12:13:21.732Z,1.30
2023-03-11T12:15:54.606Z,0.88
2023-03-11T12:18:37.498Z,0.95
2023-03-11T12:21:23.993Z,0.84
2023-03-11T12:24:13.734Z,1.06
2023-03-11T12:26:40.449Z,1.33
2023-03-11T12:29:11.891Z,1.28
2023-03-11T12:31:39.974Z,1.32
2023-03-11T12:34:08.043Z,1.44
2023-03-11T12:36:35.034Z,2.64
2023-03-11T12:39:03.113Z,2.51
2023-03-11T12:41:37.752Z,3.62
2023-03-11T12:44:24.060Z,3.64
2023-03-11T12:46:59.859Z,3.87
2023-03-11T12:49:48.592Z,3.12
2023-03-11T12:52:19.318Z,2.59
2023-03-11T12:54:47.302Z,2.25
2023-03-11T12:57:16.800Z,1.54
2023-03-11T13:00:02.454Z,1.15
2023-03-11T13:03:06.810Z,0.89
2023-03-11T13:05:54.757Z,0.95
2023-03-11T13:08:29.404Z,0.94
2023-03-11T13:10:56.094Z,0.84
2023-03-11T13:13:41.507Z,1.13
2023-03-11T13:16:14.173Z,1.14
2023-03-11T13:18:41.418Z,0.87
2023-03-11T13:21:26.857Z,0.98
2023-03-11T13:24:12.022Z,0.97
2023-03-11T13:26:40.820Z,1.01
2023-03-11T13:29:29.528Z,0.97
2023-03-11T13:31:59.064Z,0.92
2023-03-11T13:34:50.452Z,0.98
2023-03-11T13:37:27.766Z,1.34
2023-03-11T13:40:12.593Z,1.35
2023-03-11T13:42:49.472Z,1.25
2023-03-11T13:45:25.845Z,1.13
2023-03-11T13:47:52.559Z,0.99
2023-03-11T13:50:31.213Z,1.00
2023-03-11T13:52:58.674Z,1.14
2023-03-11T13:55:32.556Z,1.43
2023-03-11T13:57:59.215Z,1.19
2023-03-11T14:00:29.468Z,1.27
2023-03-11T14:03:01.712Z,1.37
2023-03-11T14:05:35.269Z,1.37
2023-03-11T14:08:20.731Z,1.53
2023-03-11T14:11:01.109Z,1.66
2023-03-11T14:13:31.991Z,1.62
2023-03-11T14:16:04.348Z,1.68
2023-03-11T14:18:33.058Z,1.68
2023-03-11T14:20:59.750Z,1.92
2023-03-11T14:23:29.502Z,1.86
2023-03-11T14:26:16.735Z,1.99
2023-03-11T14:28:48.405Z,1.97
2023-03-11T14:31:41.938Z,1.96
2023-03-11T14:34:19.490Z,1.80
2023-03-11T14:36:50.180Z,1.97
2023-03-11T14:39:39.663Z,1.99
2023-03-11T14:42:21.662Z,1.90
2023-03-11T14:45:00.668Z,2.09
2023-03-11T14:47:40.298Z,1.91
2023-03-11T14:50:10.102Z,1.95
2023-03-11T14:52:41.658Z,2.04
2023-03-11T14:55:14.167Z,1.91
2023-03-11T14:57:48.235Z,1.78
2023-03-11T15:00:19.551Z,1.71
2023-03-11T15:03:22.585Z,2.14
2023-03-11T15:05:52.193Z,2.16
2023-03-11T15:08:19.900Z,2.07
2023-03-11T15:11:06.853Z,2.07
2023-03-11T15:13:33.770Z,2.08
2023-03-11T15:16:05.443Z,2.69
2023-03-11T15:18:34.010Z,2.73
2023-03-11T15:21:02.439Z,2.67
2023-03-11T15:23:29.096Z,2.64
2023-03-11T15:25:55.750Z,2.44
2023-03-11T15:28:28.395Z,2.11
2023-03-11T15:31:19.918Z,2.11
2023-03-11T15:33:46.633Z,2.11
2023-03-11T15:36:28.894Z,2.78
2023-03-11T15:39:18.425Z,2.71
2023-03-11T15:41:47.000Z,2.16
2023-03-11T15:44:24.051Z,2.10
2023-03-11T15:46:50.694Z,1.91
2023-03-11T15:49:17.347Z,2.18
2023-03-11T15:51:44.038Z,2.15
2023-03-11T15:54:10.708Z,2.16
2023-03-11T15:56:39.619Z,2.10
2023-03-11T15:59:06.319Z,3.01
2023-03-11T16:01:32.960Z,2.92
2023-03-11T16:03:59.739Z,3.58
2023-03-11T16:06:26.441Z,2.17
2023-03-11T16:08:53.102Z,2.22
2023-03-11T16:11:19.772Z,2.35
2023-03-11T16:13:46.446Z,2.23
2023-03-11T16:16:16.583Z,1.97
2023-03-11T16:18:43.290Z,2.43
2023-03-11T16:21:15.802Z,2.26
2023-03-11T16:23:51.496Z,2.24
2023-03-11T16:26:18.983Z,2.55
2023-03-11T16:28:45.678Z,2.57
2023-03-11T16:31:12.362Z,2.95
2023-03-11T16:33:39.059Z,3.23
2023-03-11T16:36:06.114Z,3.63
2023-03-11T16:38:36.397Z,3.62
2023-03-11T16:41:03.181Z,3.40
2023-03-11T16:43:29.881Z,3.13
2023-03-11T16:45:56.621Z,4.48
2023-03-11T16:48:24.175Z,6.83
2023-03-11T16:50:51.771Z,5.11
2023-03-11T16:53:19.355Z,3.99
2023-03-11T16:55:46.970Z,3.47
2023-03-11T16:58:14.535Z,3.28
2023-03-11T17:00:41.786Z,2.94
2023-03-11T17:03:10.414Z,2.78
2023-03-11T17:05:37.292Z,3.78
2023-03-11T17:08:03.933Z,3.57
2023-03-11T17:10:35.488Z,2.98
2023-03-11T17:13:02.174Z,2.87
2023-03-11T17:15:29.411Z,3.44
2023-03-11T17:17:56.114Z,3.72
2023-03-11T17:20:22.775Z,3.96
2023-03-11T17:22:49.472Z,3.68
2023-03-11T17:25:16.134Z,3.55
2023-03-11T17:27:42.781Z,3.85
2023-03-11T17:30:10.008Z,4.26
2023-03-11T17:32:36.703Z,4.74
2023-03-11T17:35:03.386Z,6.12
2023-03-11T17:37:30.129Z,6.29
2023-03-11T17:39:56.808Z,6.72
2023-03-11T17:42:23.476Z,7.40
2023-03-11T17:44:52.033Z,6.97
2023-03-11T17:47:19.207Z,8.20
2023-03-11T17:49:45.868Z,7.79
2023-03-11T17:52:12.892Z,7.16
2023-03-11T17:54:40.222Z,8.90
2023-03-11T17:57:06.879Z,8.55
2023-03-11T17:59:33.696Z,8.76
2023-03-11T18:02:00.486Z,8.87
2023-03-11T18:04:27.599Z,10.02
2023-03-11T18:06:54.839Z,10.00
2023-03-11T18:09:21.540Z,8.67
2023-03-11T18:11:48.446Z,7.86
2023-03-11T18:14:15.135Z,8.03
2023-03-11T18:16:41.849Z,6.35
2023-03-11T18:19:08.703Z,6.18
2023-03-11T18:21:35.369Z,5.73
2023-03-11T18:24:02.043Z,5.29
2023-03-11T18:26:29.101Z,5.66
2023-03-11T18:28:56.354Z,5.12
2023-03-11T18:31:23.825Z,4.61
2023-03-11T18:34:00.880Z,4.91
2023-03-11T18:36:32.295Z,5.18
2023-03-11T18:38:59.310Z,5.52
2023-03-11T18:41:26.522Z,5.92
2023-03-11T18:43:53.720Z,6.57
2023-03-11T18:46:20.428Z,7.32
2023-03-11T18:48:47.159Z,11.87
2023-03-11T18:51:13.881Z,10.83
2023-03-11T18:53:42.942Z,8.82
2023-03-11T18:56:13.443Z,10.77
2023-03-11T18:58:40.145Z,10.08
2023-03-11T19:01:14.478Z,12.53
2023-03-11T19:03:41.807Z,12.55
2023-03-11T19:06:09.334Z,12.01
2023-03-11T19:08:36.035Z,13.98
2023-03-11T19:11:10.720Z,13.02
2023-03-11T19:13:46.541Z,11.94
2023-03-11T19:16:14.937Z,12.33
2023-03-11T19:18:42.527Z,11.48
2023-03-11T19:21:10.262Z,9.80
2023-03-11T19:23:36.908Z,10.06
2023-03-11T19:26:03.840Z,9.72
2023-03-11T19:28:30.572Z,10.13
2023-03-11T19:30:57.756Z,9.64
2023-03-11T19:33:24.473Z,8.85
2023-03-11T19:36:01.438Z,8.52
2023-03-11T19:38:28.638Z,8.25
2023-03-11T19:41:03.581Z,8.81
2023-03-11T19:43:30.310Z,9.24
2023-03-11T19:45:57.007Z,9.69
2023-03-11T19:48:23.709Z,9.33
2023-03-11T19:50:50.771Z,9.51
2023-03-11T19:53:17.477Z,12.98
2023-03-11T19:55:48.948Z,18.60
2023-03-11T19:58:15.599Z,16.24
2023-03-11T20:00:42.697Z,17.14
2023-03-11T20:03:09.965Z,18.75
2023-03-11T20:05:37.559Z,17.07
2023-03-11T20:08:04.723Z,16.84
2023-03-11T20:10:31.440Z,17.77
2023-03-11T20:13:02.383Z,17.47
2023-03-11T20:15:29.573Z,17.05
2023-03-11T20:17:56.316Z,16.63
2023-03-11T20:20:22.996Z,17.02
2023-03-11T20:22:49.669Z,17.02
2023-03-11T20:25:16.311Z,15.12
2023-03-11T20:27:43.038Z,13.59
2023-03-11T20:30:10.268Z,10.77
2023-03-11T20:32:37.025Z,9.76
2023-03-11T20:35:04.012Z,8.98
2023-03-11T20:37:31.262Z,8.51
2023-03-11T20:39:57.912Z,8.66
2023-03-11T20:42:24.646Z,8.57
2023-03-11T20:44:53.341Z,9.03
2023-03-11T20:47:20.409Z,8.88
2023-03-11T20:49:47.198Z,8.87
2023-03-11T20:52:13.984Z,8.63
2023-03-11T20:54:40.645Z,8.78
2023-03-11T20:57:07.392Z,8.33
2023-03-11T20:59:34.164Z,7.91
2023-03-11T21:02:00.982Z,7.58
2023-03-11T21:04:27.777Z,7.34
2023-03-11T21:06:54.448Z,6.36
2023-03-11T21:09:21.131Z,6.66
2023-03-11T21:11:47.910Z,6.54
2023-03-11T21:14:15.662Z,7.29
2023-03-11T21:16:42.887Z,8.97
2023-03-11T21:19:09.715Z,8.62
2023-03-11T21:21:37.331Z,8.81
2023-03-11T21:24:05.933Z,9.60
2023-03-11T21:26:32.594Z,9.52
2023-03-11T21:28:59.239Z,9.47
2023-03-11T21:31:28.939Z,8.88
2023-03-11T21:33:56.750Z,8.80
2023-03-11T21:36:23.566Z,7.15
2023-03-11T21:38:50.599Z,6.02
2023-03-11T21:41:24.932Z,5.78
2023-03-11T21:43:52.650Z,5.60
2023-03-11T21:46:21.217Z,5.82
2023-03-11T21:48:48.066Z,5.89
2023-03-11T21:51:15.544Z,5.42
2023-03-11T21:53:42.287Z,5.54
2023-03-11T21:56:09.036Z,5.66
2023-03-11T21:58:35.755Z,5.38
2023-03-11T22:01:02.555Z,6.13
2023-03-11T22:03:29.397Z,6.50
2023-03-11T22:05:59.869Z,6.47
2023-03-11T22:08:26.697Z,6.56
2023-03-11T22:10:53.551Z,6.90
2023-03-11T22:13:20.266Z,6.91
2023-03-11T22:15:46.930Z,7.11
2023-03-11T22:18:13.761Z,7.23
2023-03-11T22:20:40.792Z,7.30
2023-03-11T22:23:09.188Z,8.17
2023-03-11T22:25:35.934Z,8.34
2023-03-11T22:28:02.589Z,8.52
2023-03-11T22:30:29.256Z,8.70
2023-03-11T22:32:56.001Z,9.06
2023-03-11T22:35:22.690Z,9.09
2023-03-11T22:37:49.348Z,8.92
2023-03-11T22:40:16.006Z,9.68
2023-03-11T22:42:42.644Z,9.69
2023-03-11T22:45:09.443Z,9.78
2023-03-11T22:47:36.260Z,9.65
2023-03-11T22:50:03.916Z,9.81
2023-03-11T22:52:30.863Z,9.70
2023-03-11T22:54:57.553Z,10.26
2023-03-11T22:57:24.724Z,10.48
2023-03-11T22:59:51.437Z,10.35
2023-03-11T23:02:18.407Z,11.27
2023-03-11T23:04:45.161Z,10.62
2023-03-11T23:07:12.792Z,10.74
2023-03-11T23:09:40.459Z,11.38
2023-03-11T23:12:07.350Z,11.59
2023-03-11T23:14:44.626Z,12.21
2023-03-11T23:17:11.982Z,13.26
2023-03-11T23:19:38.680Z,13.14
2023-03-11T23:22:05.421Z,12.79
2023-03-11T23:24:33.063Z,13.59
2023-03-11T23:27:00.112Z,13.60
2023-03-11T23:29:26.782Z,13.94
2023-03-11T23:31:53.481Z,14.21
2023-03-11T23:34:20.123Z,14.60
2023-03-11T23:36:46.766Z,14.00
2023-03-11T23:39:13.407Z,14.30
2023-03-11T23:41:40.089Z,14.03
2023-03-11T23:44:06.759Z,13.91
2023-03-11T23:46:33.534Z,13.22
2023-03-11T23:49:01.976Z,13.79
2023-03-11T23:51:29.576Z,13.52
2023-03-11T23:53:57.170Z,14.09
2023-03-11T23:56:23.826Z,13.86
2023-03-11T23:58:50.491Z,14.59
